createdAt,value
2023-07-02T00:01:53.156Z,6.25
2023-07-02T00:04:19.966Z,4.93
2023-07-02T00:06:47.171Z,4.82
2023-07-02T00:09:14.257Z,5.93
2023-07-02T00:11:42.901Z,5.75
2023-07-02T00:14:10.643Z,4.07
2023-07-02T00:16:39.859Z,7.10
2023-07-02T00:19:08.505Z,6.53
2023-07-02T00:21:35.257Z,6.53
2023-07-02T00:24:01.857Z,4.20
2023-07-02T00:26:28.776Z,6.15
2023-07-02T00:28:57.062Z,3.47
2023-07-02T00:31:24.721Z,7.45
2023-07-02T00:33:51.931Z,5.17
2023-07-02T00:36:19.880Z,3.63
2023-07-02T00:38:47.446Z,3.38
2023-07-02T00:41:14.441Z,6.95
2023-07-02T00:43:41.038Z,5.50
2023-07-02T00:46:07.842Z,7.03
2023-07-02T00:48:34.511Z,2.53
2023-07-02T00:51:01.670Z,6.13
2023-07-02T00:53:29.660Z,7.32
2023-07-02T00:55:56.138Z,6.22
2023-07-02T00:58:22.947Z,4.80
2023-07-02T01:00:49.841Z,4.32
2023-07-02T01:03:16.785Z,6.15
2023-07-02T01:05:43.690Z,6.10
2023-07-02T01:08:10.285Z,8.73
2023-07-02T01:10:38.281Z,6.70
2023-07-02T01:13:09.764Z,7.45
2023-07-02T01:15:37.778Z,5.97
2023-07-02T01:18:06.082Z,8.38
2023-07-02T01:20:35.805Z,4.63
2023-07-02T01:23:02.613Z,7.77
2023-07-02T01:25:29.376Z,8.07
2023-07-02T01:27:56.391Z,9.02
2023-07-02T01:30:23.208Z,9.75
2023-07-02T01:32:50.193Z,9.05
2023-07-02T01:35:17.002Z,9.40
2023-07-02T01:37:44.990Z,8.63
2023-07-02T01:40:11.950Z,9.20
2023-07-02T01:42:39.133Z,8.32
2023-07-02T01:45:06.662Z,12.93
2023-07-02T01:47:34.971Z,12.83
2023-07-02T01:50:03.088Z,10.55
2023-07-02T01:52:29.762Z,9.35
2023-07-02T01:54:57.681Z,12.93
2023-07-02T01:57:24.402Z,13.38
2023-07-02T01:59:51.057Z,10.43
2023-07-02T02:02:17.673Z,10.73
2023-07-02T02:04:44.340Z,11.55
2023-07-02T02:07:10.943Z,10.45
2023-07-02T02:09:37.852Z,10.35
2023-07-02T02:12:06.747Z,10.03
2023-07-02T02:14:33.375Z,13.48
2023-07-02T02:17:00.048Z,12.65
2023-07-02T02:19:26.655Z,12.20
2023-07-02T02:21:53.275Z,12.25
2023-07-02T02:24:20.345Z,12.93
2023-07-02T02:26:46.981Z,14.73
2023-07-02T02:29:15.284Z,19.05
2023-07-02T02:31:41.910Z,13.18
2023-07-02T02:34:08.751Z,15.82
2023-07-02T02:36:35.371Z,13.33
2023-07-02T02:39:02.110Z,16.05
2023-07-02T02:41:28.604Z,20.48
2023-07-02T02:43:55.234Z,15.85
2023-07-02T02:46:23.684Z,17.23
2023-07-02T02:48:50.305Z,12.23
2023-07-02T02:51:17.173Z,14.13
2023-07-02T02:53:43.944Z,12.25
2023-07-02T02:56:10.522Z,16.35
2023-07-02T02:58:37.166Z,12.25
2023-07-02T03:01:04.072Z,14.13
2023-07-02T03:03:32.212Z,13.70
2023-07-02T03:05:58.881Z,12.55
2023-07-02T03:08:25.506Z,17.95
2023-07-02T03:10:52.232Z,17.38
2023-07-02T03:13:18.793Z,16.97
2023-07-02T03:15:45.414Z,15.88
2023-07-02T03:18:12.050Z,17.58
2023-07-02T03:20:40.020Z,16.40
2023-07-02T03:23:06.612Z,15.25
2023-07-02T03:25:33.498Z,17.87
2023-07-02T03:28:00.092Z,17.88
2023-07-02T03:30:26.693Z,18.02
2023-07-02T03:32:53.457Z,21.52
2023-07-02T03:35:20.110Z,21.98
2023-07-02T03:37:48.064Z,19.23
2023-07-02T03:40:14.885Z,17.20
2023-07-02T03:42:42.832Z,21.05
2023-07-02T03:45:10.230Z,20.52
2023-07-02T03:47:36.859Z,24.45
2023-07-02T03:50:03.862Z,16.27
2023-07-02T03:52:30.616Z,20.00
2023-07-02T03:54:58.593Z,18.67
2023-07-02T03:57:25.361Z,22.10
2023-07-02T03:59:51.939Z,22.73
2023-07-02T04:02:18.773Z,22.07
2023-07-02T04:04:45.476Z,18.60
2023-07-02T04:07:12.243Z,20.55
2023-07-02T04:09:38.870Z,20.45
2023-07-02T04:12:08.272Z,22.88
2023-07-02T04:14:34.908Z,22.83
2023-07-02T04:17:03.047Z,24.30
2023-07-02T04:19:29.626Z,21.65
2023-07-02T04:21:56.396Z,18.90
2023-07-02T04:24:23.150Z,23.75
2023-07-02T04:27:14.700Z,23.93
2023-07-02T04:29:38.237Z,22.25
2023-07-02T04:32:05.697Z,23.25
2023-07-02T04:34:32.706Z,21.33
2023-07-02T04:36:59.285Z,25.02
2023-07-02T04:39:26.009Z,23.97
2023-07-02T04:41:52.621Z,25.58
2023-07-02T04:44:19.748Z,20.00
2023-07-02T04:46:48.399Z,22.35
2023-07-02T04:49:15.052Z,25.45
2023-07-02T04:51:41.657Z,25.00
2023-07-02T04:54:08.359Z,22.05
2023-07-02T04:56:34.967Z,25.45
2023-07-02T04:59:01.546Z,26.83
2023-07-02T05:01:29.242Z,21.20
2023-07-02T05:03:57.248Z,22.37
2023-07-02T05:06:23.865Z,22.02
2023-07-02T05:08:50.452Z,27.17
2023-07-02T05:11:17.184Z,22.10
2023-07-02T05:13:43.799Z,24.85
2023-07-02T05:16:10.337Z,25.33
2023-07-02T05:18:36.930Z,26.90
2023-07-02T05:21:04.981Z,22.25
2023-07-02T05:23:31.726Z,26.00
2023-07-02T05:25:58.284Z,26.73
2023-07-02T05:28:25.282Z,24.63
2023-07-02T05:30:51.915Z,24.38
2023-07-02T05:33:20.043Z,26.95
2023-07-02T05:35:46.685Z,26.75
2023-07-02T05:38:14.916Z,24.77
2023-07-02T05:40:41.673Z,26.83
2023-07-02T05:43:08.349Z,22.27
2023-07-02T05:45:34.987Z,25.45
2023-07-02T05:48:01.604Z,24.48
2023-07-02T05:50:28.432Z,28.98
2023-07-02T05:52:57.096Z,25.60
2023-07-02T05:55:25.254Z,25.27
2023-07-02T05:57:54.493Z,25.40
2023-07-02T06:00:21.357Z,26.20
2023-07-02T06:02:48.084Z,24.58
2023-07-02T06:05:14.890Z,25.73
2023-07-02T06:07:41.722Z,27.00
2023-07-02T06:10:08.811Z,28.02
2023-07-02T06:12:36.636Z,23.10
2023-07-02T06:15:03.899Z,23.10
2023-07-02T06:17:30.547Z,26.50
2023-07-02T06:19:57.356Z,28.02
2023-07-02T06:22:24.072Z,25.20
2023-07-02T06:24:50.740Z,30.80
2023-07-02T06:27:17.499Z,24.85
2023-07-02T06:29:45.412Z,24.40
2023-07-02T06:32:12.013Z,23.50
2023-07-02T06:34:38.607Z,21.63
2023-07-02T06:37:05.769Z,23.63
2023-07-02T06:39:32.519Z,22.42
2023-07-02T06:41:59.104Z,20.43
2023-07-02T06:44:25.817Z,21.27
2023-07-02T06:46:53.911Z,24.58
2023-07-02T06:49:20.607Z,23.60
2023-07-02T06:51:47.233Z,24.52
2023-07-02T06:54:13.804Z,27.60
2023-07-02T06:56:40.646Z,21.63
2023-07-02T06:59:07.239Z,22.25
2023-07-02T07:01:33.814Z,24.70
2023-07-02T07:04:02.052Z,24.52
2023-07-02T07:06:30.059Z,27.10
2023-07-02T07:08:56.684Z,25.13
2023-07-02T07:11:23.378Z,24.50
2023-07-02T07:13:50.038Z,23.20
2023-07-02T07:16:16.807Z,22.40
2023-07-02T07:18:44.965Z,19.87
2023-07-02T07:21:12.944Z,21.80
2023-07-02T07:23:41.041Z,17.73
2023-07-02T07:26:07.772Z,20.77
2023-07-02T07:28:34.380Z,20.35
2023-07-02T07:31:01.076Z,24.63
2023-07-02T07:33:27.719Z,16.60
2023-07-02T07:35:54.470Z,17.40
2023-07-02T07:38:22.595Z,18.35
2023-07-02T07:40:49.771Z,19.52
2023-07-02T07:43:16.593Z,16.67
2023-07-02T07:45:43.440Z,21.42
2023-07-02T07:48:10.208Z,20.75
2023-07-02T07:50:36.847Z,18.33
2023-07-02T07:53:03.538Z,19.73
2023-07-02T07:55:31.508Z,19.20
2023-07-02T07:57:58.771Z,20.80
2023-07-02T08:00:25.491Z,19.55
2023-07-02T08:02:52.138Z,20.98
2023-07-02T08:05:18.780Z,19.45
2023-07-02T08:07:45.387Z,20.10
2023-07-02T08:10:12.007Z,21.98
2023-07-02T08:12:40.167Z,21.95
2023-07-02T08:15:07.902Z,23.50
2023-07-02T08:17:34.737Z,19.95
2023-07-02T08:20:01.379Z,21.33
2023-07-02T08:22:28.484Z,23.38
2023-07-02T08:24:55.072Z,22.98
2023-07-02T08:27:21.825Z,20.60
2023-07-02T08:29:50.147Z,18.15
2023-07-02T08:32:16.980Z,20.77
2023-07-02T08:34:43.626Z,21.15
2023-07-02T08:37:10.385Z,19.02
2023-07-02T08:39:38.414Z,22.38
2023-07-02T08:42:05.740Z,20.00
2023-07-02T08:44:32.543Z,18.87
2023-07-02T08:47:00.983Z,22.38
2023-07-02T08:49:28.106Z,25.92
2023-07-02T08:51:55.075Z,20.30
2023-07-02T08:54:21.951Z,21.15
2023-07-02T08:56:48.527Z,24.37
2023-07-02T08:59:15.505Z,19.98
2023-07-02T09:01:48.230Z,23.23
2023-07-02T09:04:20.582Z,17.70
2023-07-02T09:06:47.586Z,22.10
2023-07-02T09:09:14.228Z,19.67
2023-07-02T09:11:51.298Z,18.23
2023-07-02T09:14:29.995Z,22.45
2023-07-02T09:17:07.792Z,21.35
2023-07-02T09:19:36.719Z,25.58
2023-07-02T09:22:04.187Z,17.83
2023-07-02T09:24:31.776Z,17.60
2023-07-02T09:27:00.248Z,16.30
2023-07-02T09:29:28.418Z,21.75
2023-07-02T09:34:30.303Z,19.47
2023-07-02T09:36:59.624Z,25.15
2023-07-02T09:39:28.224Z,21.92
2023-07-02T09:41:56.260Z,19.88
2023-07-02T09:44:23.547Z,17.60
2023-07-02T09:46:57.004Z,15.77
2023-07-02T09:49:24.539Z,19.30
2023-07-02T09:51:51.791Z,18.65
2023-07-02T09:54:20.051Z,17.83
2023-07-02T09:56:46.904Z,25.50
2023-07-02T09:59:13.535Z,17.30
2023-07-02T10:01:40.407Z,14.82
2023-07-02T10:04:13.931Z,18.25
2023-07-02T10:06:48.455Z,21.55
2023-07-02T10:09:15.282Z,24.33
2023-07-02T10:11:43.573Z,24.20
2023-07-02T10:14:10.291Z,21.40
2023-07-02T10:16:50.139Z,26.23
2023-07-02T10:19:16.919Z,28.30
2023-07-02T10:21:43.677Z,31.80
2023-07-02T10:24:12.378Z,23.03
2023-07-02T10:26:38.989Z,25.85
2023-07-02T10:29:07.478Z,17.92
2023-07-02T10:31:34.260Z,20.10
2023-07-02T10:34:00.933Z,19.85
2023-07-02T10:36:27.561Z,17.73
2023-07-02T10:38:54.399Z,15.65
2023-07-02T10:41:26.617Z,15.60
2023-07-02T10:43:53.452Z,15.43
2023-07-02T10:46:22.461Z,15.82
2023-07-02T10:48:53.362Z,16.03
2023-07-02T10:51:20.185Z,15.32
2023-07-02T10:53:48.054Z,17.05
2023-07-02T10:56:18.828Z,12.45
2023-07-02T10:58:45.490Z,16.90
2023-07-02T11:01:12.687Z,12.13
2023-07-02T11:03:41.172Z,16.10
2023-07-02T11:06:08.023Z,13.52
2023-07-02T11:08:37.553Z,14.80
2023-07-02T11:11:08.335Z,12.32
2023-07-02T11:13:35.088Z,13.37
2023-07-02T11:16:02.378Z,10.95
2023-07-02T11:18:32.137Z,11.68
2023-07-02T11:21:11.017Z,11.90
2023-07-02T11:23:37.769Z,12.55
2023-07-02T11:26:04.860Z,11.33
2023-07-02T11:28:33.009Z,11.38
2023-07-02T11:31:00.138Z,11.38
2023-07-02T11:33:36.840Z,13.98
2023-07-02T11:36:05.740Z,9.30
2023-07-02T11:38:35.576Z,12.43
2023-07-02T11:41:03.914Z,12.35
2023-07-02T11:43:30.525Z,14.27
2023-07-02T11:45:57.130Z,14.65
2023-07-02T11:48:23.874Z,14.23
2023-07-02T11:50:50.483Z,10.60
2023-07-02T11:53:18.453Z,11.52
2023-07-02T11:55:45.345Z,11.43
2023-07-02T11:58:11.953Z,15.60
2023-07-02T12:00:38.581Z,14.90
2023-07-02T12:03:05.399Z,11.87
2023-07-02T12:05:32.220Z,10.50
2023-07-02T12:07:58.779Z,11.32
2023-07-02T12:10:26.879Z,10.88
2023-07-02T12:12:53.472Z,8.75
2023-07-02T12:15:20.195Z,13.27
2023-07-02T12:17:47.090Z,9.98
2023-07-02T12:20:13.832Z,14.30
2023-07-02T12:22:40.641Z,12.20
2023-07-02T12:25:08.132Z,10.13
2023-07-02T12:27:36.111Z,16.07
2023-07-02T12:30:03.018Z,13.18
2023-07-02T12:32:29.695Z,15.65
2023-07-02T12:34:58.037Z,17.85
2023-07-02T12:37:24.868Z,14.40
2023-07-02T12:39:51.494Z,13.30
2023-07-02T12:42:18.560Z,16.13
2023-07-02T12:44:46.625Z,13.63
2023-07-02T12:47:13.219Z,14.32
2023-07-02T12:49:39.952Z,19.77
2023-07-02T12:52:06.850Z,13.10
2023-07-02T12:54:33.854Z,12.27
2023-07-02T12:57:00.603Z,17.45
2023-07-02T12:59:27.194Z,12.23
2023-07-02T13:01:55.236Z,11.82
2023-07-02T13:04:22.122Z,12.97
2023-07-02T13:06:48.988Z,14.07
2023-07-02T13:09:15.547Z,13.10
2023-07-02T13:11:42.322Z,10.32
2023-07-02T13:14:09.100Z,11.48
2023-07-02T13:16:35.750Z,13.77
2023-07-02T13:19:03.909Z,10.98
2023-07-02T13:21:30.648Z,10.68
2023-07-02T13:23:57.269Z,14.55
2023-07-02T13:26:24.005Z,12.95
2023-07-02T13:28:50.749Z,13.13
2023-07-02T13:31:17.487Z,12.20
2023-07-02T13:33:44.666Z,11.30
2023-07-02T13:36:12.850Z,15.07
2023-07-02T13:38:39.637Z,12.38
2023-07-02T13:41:06.676Z,12.13
2023-07-02T13:43:33.400Z,12.07
2023-07-02T13:46:00.351Z,14.52
2023-07-02T13:48:28.788Z,12.45
2023-07-02T13:50:55.794Z,15.00
2023-07-02T13:53:23.808Z,13.90
2023-07-02T13:55:51.204Z,11.85
2023-07-02T13:58:29.380Z,16.65
2023-07-02T14:00:58.182Z,15.27
2023-07-02T14:03:24.922Z,14.07
2023-07-02T14:05:52.202Z,14.57
2023-07-02T14:08:19.263Z,13.32
2023-07-02T14:10:45.878Z,19.90
2023-07-02T14:13:12.585Z,14.82
2023-07-02T14:15:39.196Z,14.52
2023-07-02T14:18:07.641Z,12.97
2023-07-02T14:20:34.321Z,13.48
2023-07-02T14:23:00.988Z,12.45
2023-07-02T14:25:40.676Z,15.15
2023-07-02T14:28:08.607Z,13.98
2023-07-02T14:30:35.205Z,15.53
2023-07-02T14:33:01.803Z,14.27
2023-07-02T14:35:30.150Z,13.75
2023-07-02T14:37:56.710Z,14.00
2023-07-02T14:40:23.344Z,14.00
2023-07-02T14:42:50.354Z,11.90
2023-07-02T14:45:16.944Z,11.65
2023-07-02T14:47:43.962Z,17.08
2023-07-02T14:50:11.028Z,20.27
2023-07-02T14:52:38.995Z,14.75
2023-07-02T14:55:06.388Z,17.20
2023-07-02T14:57:33.204Z,18.77
2023-07-02T14:59:59.855Z,16.98
2023-07-02T15:02:26.791Z,17.27
2023-07-02T15:04:53.689Z,14.20
2023-07-02T15:07:20.618Z,14.57
2023-07-02T15:09:48.829Z,17.63
2023-07-02T15:12:15.434Z,16.70
2023-07-02T15:14:42.377Z,18.20
2023-07-02T15:17:09.057Z,15.40
2023-07-02T15:19:35.710Z,20.30
2023-07-02T15:22:02.207Z,16.23
2023-07-02T15:24:28.832Z,16.00
2023-07-02T15:26:56.993Z,16.23
2023-07-02T15:29:23.876Z,20.85
2023-07-02T15:31:50.482Z,16.90
2023-07-02T15:34:17.080Z,15.20
2023-07-02T15:36:44.148Z,17.55
2023-07-02T15:39:10.802Z,14.50
2023-07-02T15:41:37.401Z,17.13
2023-07-02T15:44:06.173Z,18.33
2023-07-02T15:46:32.818Z,20.02
2023-07-02T15:49:00.166Z,18.05
2023-07-02T15:51:26.768Z,14.20
2023-07-02T15:53:53.429Z,13.68
2023-07-02T15:56:20.047Z,14.30
2023-07-02T15:58:46.687Z,14.32
2023-07-02T16:01:16.877Z,16.67
2023-07-02T16:03:44.058Z,16.42
2023-07-02T16:06:13.101Z,17.92
2023-07-02T16:08:39.818Z,15.27
2023-07-02T16:11:07.502Z,12.55
2023-07-02T16:13:34.172Z,13.00
2023-07-02T16:16:02.208Z,17.27
2023-07-02T16:18:30.298Z,17.10
2023-07-02T16:20:58.640Z,14.40
2023-07-02T16:23:25.339Z,17.33
2023-07-02T16:25:55.607Z,14.45
2023-07-02T16:28:22.827Z,17.33
2023-07-02T16:30:49.581Z,18.65
2023-07-02T16:33:17.864Z,16.43
2023-07-02T16:35:46.749Z,15.77
2023-07-02T16:38:13.952Z,14.48
2023-07-02T16:40:40.814Z,18.02
2023-07-02T16:43:07.431Z,12.43
2023-07-02T16:45:34.387Z,15.33
2023-07-02T16:48:01.012Z,18.58
2023-07-02T16:50:27.861Z,19.05
2023-07-02T16:52:55.824Z,14.95
2023-07-02T16:55:22.589Z,15.98
2023-07-02T16:57:49.172Z,14.03
2023-07-02T17:00:16.624Z,12.23
2023-07-02T17:02:43.688Z,15.77
2023-07-02T17:05:10.387Z,13.93
2023-07-02T17:07:37.454Z,15.90
2023-07-02T17:10:06.917Z,15.33
2023-07-02T17:12:33.503Z,15.20
2023-07-02T17:15:00.099Z,15.63
2023-07-02T17:17:27.901Z,14.25
2023-07-02T17:19:55.905Z,14.13
2023-07-02T17:22:24.779Z,19.10
2023-07-02T17:24:53.283Z,18.48
2023-07-02T17:27:23.271Z,16.85
2023-07-02T17:29:51.225Z,15.80
2023-07-02T17:32:17.850Z,17.65
2023-07-02T17:34:44.837Z,19.67
2023-07-02T17:37:12.551Z,16.02
2023-07-02T17:39:39.397Z,17.57
2023-07-02T17:42:06.962Z,17.65
2023-07-02T17:44:37.026Z,15.85
2023-07-02T17:47:06.123Z,15.52
2023-07-02T17:49:36.639Z,18.55
2023-07-02T17:52:03.871Z,16.93
2023-07-02T17:54:34.982Z,15.63
2023-07-02T17:57:04.047Z,19.05
2023-07-02T17:59:30.655Z,17.25
2023-07-02T18:01:58.665Z,15.90
2023-07-02T18:04:25.333Z,16.47
2023-07-02T18:06:51.977Z,16.92
2023-07-02T18:09:19.136Z,19.08
2023-07-02T18:11:45.851Z,14.98
2023-07-02T18:14:12.438Z,21.05
2023-07-02T18:16:39.236Z,15.80
2023-07-02T18:19:07.240Z,19.42
2023-07-02T18:21:33.928Z,12.90
2023-07-02T18:24:00.592Z,19.15
2023-07-02T18:26:27.458Z,17.58
2023-07-02T18:28:54.272Z,15.40
2023-07-02T18:31:21.597Z,17.83
2023-07-02T18:33:48.296Z,14.95
2023-07-02T18:36:18.726Z,18.13
2023-07-02T18:38:45.609Z,16.60
2023-07-02T18:41:12.794Z,18.33
2023-07-02T18:43:39.645Z,17.90
2023-07-02T18:46:07.092Z,18.77
2023-07-02T18:48:34.286Z,20.83
2023-07-02T18:51:05.063Z,15.25
2023-07-02T18:53:35.275Z,16.43
2023-07-02T18:56:03.423Z,16.55
2023-07-02T18:58:31.332Z,15.85
2023-07-02T19:00:58.162Z,18.83
2023-07-02T19:03:25.171Z,17.10
2023-07-02T19:05:52.537Z,14.70
2023-07-02T19:08:20.080Z,14.80
2023-07-02T19:11:01.791Z,14.18
2023-07-02T19:13:29.100Z,15.23
2023-07-02T19:15:56.410Z,19.48
2023-07-02T19:18:23.342Z,15.77
2023-07-02T19:20:50.670Z,19.20
2023-07-02T19:23:17.893Z,17.15
2023-07-02T19:25:45.391Z,18.58
2023-07-02T19:28:13.692Z,19.17
2023-07-02T19:30:40.436Z,17.87
2023-07-02T19:33:07.295Z,15.00
2023-07-02T19:35:34.062Z,15.30
2023-07-02T19:38:00.943Z,14.32
2023-07-02T19:40:27.650Z,19.13
2023-07-02T19:42:54.388Z,15.63
2023-07-02T19:45:22.488Z,16.83
2023-07-02T19:47:52.419Z,17.88
2023-07-02T19:50:19.305Z,14.88
2023-07-02T19:52:47.289Z,18.88
2023-07-02T19:55:13.985Z,15.70
2023-07-02T19:57:41.086Z,19.35
2023-07-02T20:00:08.911Z,23.63
2023-07-02T20:02:37.832Z,19.63
2023-07-02T20:05:05.726Z,17.25
2023-07-02T20:07:33.352Z,16.63
2023-07-02T20:10:00.201Z,17.65
2023-07-02T20:12:27.151Z,16.92
2023-07-02T20:14:53.949Z,19.50
2023-07-02T20:17:20.642Z,21.17
2023-07-02T20:19:49.032Z,19.70
2023-07-02T20:22:16.245Z,15.68
2023-07-02T20:24:43.206Z,21.70
2023-07-02T20:27:10.375Z,18.48
2023-07-02T20:29:37.306Z,16.67
2023-07-02T20:32:06.096Z,15.30
2023-07-02T20:34:36.851Z,15.48
2023-07-02T20:37:08.040Z,18.55
2023-07-02T20:39:35.314Z,15.30
2023-07-02T20:42:03.707Z,15.85
2023-07-02T20:44:33.144Z,14.83
2023-07-02T20:46:59.888Z,19.15
2023-07-02T20:49:26.883Z,18.58
2023-07-02T20:51:53.498Z,15.55
2023-07-02T20:54:21.477Z,18.30
2023-07-02T20:56:48.856Z,17.30
2023-07-02T20:59:15.713Z,18.17
2023-07-02T21:01:42.648Z,19.05
2023-07-02T21:04:10.080Z,17.33
2023-07-02T21:06:38.915Z,16.27
2023-07-02T21:09:08.567Z,13.97
2023-07-02T21:11:37.196Z,15.38
2023-07-02T21:14:05.635Z,15.18
2023-07-02T21:16:32.447Z,14.95
2023-07-02T21:18:59.712Z,12.40
2023-07-02T21:21:28.799Z,17.40
2023-07-02T21:23:55.574Z,15.02
2023-07-02T21:26:22.235Z,17.77
2023-07-02T21:28:50.588Z,18.85
2023-07-02T21:31:17.456Z,17.98
2023-07-02T21:33:45.062Z,14.23
2023-07-02T21:36:13.088Z,14.98
2023-07-02T21:38:40.362Z,15.07
2023-07-02T21:41:07.993Z,13.50
2023-07-02T21:43:35.009Z,15.88
2023-07-02T21:46:04.873Z,13.90
2023-07-02T21:48:31.994Z,16.50
2023-07-02T21:50:58.898Z,17.40
2023-07-02T21:53:25.554Z,13.20
2023-07-02T21:55:53.070Z,13.02
2023-07-02T21:58:20.044Z,16.80
2023-07-02T22:00:46.869Z,13.32
2023-07-02T22:03:18.403Z,13.93
2023-07-02T22:05:51.458Z,12.63
2023-07-02T22:08:18.437Z,13.38
2023-07-02T22:10:45.036Z,12.83
2023-07-02T22:13:14.695Z,11.27
2023-07-02T22:15:41.401Z,10.70
2023-07-02T22:18:08.037Z,14.63
2023-07-02T22:20:37.431Z,14.30
2023-07-02T22:23:05.161Z,12.67
2023-07-02T22:25:32.675Z,10.00
2023-07-02T22:27:59.472Z,11.52
2023-07-02T22:30:26.591Z,10.02
2023-07-02T22:32:53.331Z,11.32
2023-07-02T22:35:19.942Z,10.20
2023-07-02T22:37:48.503Z,7.07
2023-07-02T22:40:17.811Z,11.23
2023-07-02T22:42:46.037Z,9.07
2023-07-02T22:45:14.575Z,11.88
2023-07-02T22:47:42.036Z,8.90
2023-07-02T22:50:11.420Z,8.15
2023-07-02T22:52:38.101Z,9.02
2023-07-02T22:55:07.469Z,16.20
2023-07-02T22:57:35.127Z,9.68
2023-07-02T23:00:02.364Z,8.63
2023-07-02T23:02:29.992Z,11.25
2023-07-02T23:04:56.768Z,15.88
2023-07-02T23:07:23.688Z,12.80
2023-07-02T23:09:50.280Z,14.35
2023-07-02T23:12:18.199Z,15.23
2023-07-02T23:14:44.929Z,13.13
2023-07-02T23:17:11.599Z,10.07
2023-07-02T23:19:38.323Z,7.28
2023-07-02T23:22:05.413Z,13.18
2023-07-02T23:24:32.071Z,12.43
2023-07-02T23:26:58.936Z,8.30
2023-07-02T23:29:26.984Z,12.05
2023-07-02T23:31:53.604Z,12.68
2023-07-02T23:34:20.364Z,10.52
2023-07-02T23:36:47.107Z,9.03
2023-07-02T23:39:14.483Z,10.75
2023-07-02T23:41:41.651Z,11.35
2023-07-02T23:44:09.501Z,11.45
2023-07-02T23:46:37.521Z,11.82
2023-07-02T23:49:04.348Z,9.63
2023-07-02T23:51:31.033Z,13.73
2023-07-02T23:53:57.964Z,9.00
2023-07-02T23:56:24.629Z,12.90
2023-07-02T23:58:51.206Z,13.02
